createdAt,value
2019-03-31T00:04:23.574Z,99.90
2019-03-31T00:09:33.410Z,99.90
2019-03-31T00:14:41.204Z,99.90
2019-03-31T00:19:49.193Z,99.90
2019-03-31T00:24:56.991Z,99.90
2019-03-31T00:30:05.124Z,99.90
2019-03-31T00:35:13.900Z,99.90
2019-03-31T00:40:21.716Z,99.90
2019-03-31T00:45:29.453Z,99.90
2019-03-31T00:50:37.297Z,99.90
2019-03-31T00:55:45.086Z,99.90
2019-03-31T01:01:35.810Z,99.90
2019-03-31T01:06:37.256Z,99.90
2019-03-31T01:11:48.288Z,99.90
2019-03-31T01:16:56.661Z,99.90
2019-03-31T01:22:04.990Z,99.90
2019-03-31T01:27:15.587Z,99.90
2019-03-31T01:32:24.423Z,99.90
2019-03-31T01:37:32.832Z,99.90
2019-03-31T01:42:40.677Z,99.90
2019-03-31T01:47:48.660Z,99.90
2019-03-31T01:52:56.680Z,99.90
2019-03-31T01:58:04.829Z,99.90
2019-03-31T02:03:14.049Z,99.90
2019-03-31T02:08:22.028Z,99.90
2019-03-31T02:13:30.408Z,99.90
2019-03-31T02:18:39.141Z,99.90
2019-03-31T02:23:46.862Z,99.90
2019-03-31T02:28:54.729Z,99.90
2019-03-31T02:34:02.498Z,99.90
2019-03-31T02:39:10.452Z,99.90
2019-03-31T02:44:18.194Z,99.90
2019-03-31T02:49:26.012Z,99.90
2019-03-31T02:54:34.168Z,99.90
2019-03-31T02:59:43.199Z,99.90
2019-03-31T03:04:51.978Z,99.90
2019-03-31T03:10:01.424Z,99.90
2019-03-31T03:15:09.555Z,99.90
2019-03-31T03:20:17.787Z,99.90
2019-03-31T03:25:25.578Z,99.90
2019-03-31T03:30:33.395Z,99.90
2019-03-31T03:35:41.347Z,99.90
2019-03-31T03:40:49.558Z,99.90
2019-03-31T03:45:57.404Z,99.90
2019-03-31T03:51:05.686Z,99.90
2019-03-31T03:56:13.838Z,99.90
2019-03-31T04:01:23.563Z,99.90
2019-03-31T04:06:31.572Z,99.90
2019-03-31T04:11:39.463Z,99.90
2019-03-31T04:16:47.364Z,99.90
2019-03-31T04:21:55.420Z,99.90
2019-03-31T04:27:03.433Z,99.90
2019-03-31T04:32:11.311Z,99.90
2019-03-31T04:37:19.269Z,99.90
2019-03-31T04:42:27.141Z,99.90
2019-03-31T04:47:35.039Z,99.90
2019-03-31T04:52:42.962Z,99.90
2019-03-31T04:57:50.942Z,99.90
2019-03-31T05:03:00.290Z,99.90
2019-03-31T05:08:08.201Z,99.90
2019-03-31T05:13:18.142Z,99.90
2019-03-31T05:18:26.887Z,99.90
2019-03-31T05:23:35.580Z,99.90
2019-03-31T05:28:44.316Z,99.90
2019-03-31T05:33:53.698Z,99.90
2019-03-31T05:39:01.849Z,99.90
2019-03-31T05:44:09.687Z,99.90
2019-03-31T05:49:17.475Z,99.90
2019-03-31T05:54:25.283Z,99.90
2019-03-31T05:59:33.452Z,99.90
2019-03-31T06:04:41.227Z,99.90
2019-03-31T06:09:48.935Z,99.90
2019-03-31T06:14:56.686Z,99.90
2019-03-31T06:20:04.747Z,99.90
2019-03-31T06:25:12.588Z,99.90
2019-03-31T06:30:20.506Z,99.90
2019-03-31T06:35:28.219Z,99.90
2019-03-31T06:40:36.088Z,99.90
2019-03-31T06:45:43.746Z,99.90
2019-03-31T06:50:52.447Z,99.90
2019-03-31T06:56:00.211Z,99.90
2019-03-31T07:01:09.358Z,99.90
2019-03-31T07:06:17.286Z,99.90
2019-03-31T07:11:24.991Z,99.90
2019-03-31T07:16:32.789Z,99.90
2019-03-31T07:21:40.897Z,99.90
2019-03-31T07:26:48.570Z,99.90
2019-03-31T07:31:56.339Z,99.90
2019-03-31T07:37:04.053Z,99.90
2019-03-31T07:42:11.940Z,99.90
2019-03-31T07:47:20.018Z,99.90
2019-03-31T07:52:27.900Z,99.90
2019-03-31T07:57:35.751Z,98.40
2019-03-31T08:02:43.456Z,97.70
2019-03-31T08:07:51.150Z,94.50
2019-03-31T08:12:58.915Z,94.70
2019-03-31T08:18:06.931Z,93.90
2019-03-31T08:23:14.672Z,94.00
2019-03-31T08:28:22.761Z,91.40
2019-03-31T08:33:30.436Z,91.60
2019-03-31T08:38:38.163Z,88.00
2019-03-31T08:43:46.094Z,88.30
2019-03-31T08:48:53.966Z,91.30
2019-03-31T08:54:01.651Z,89.90
2019-03-31T08:59:09.611Z,87.30
2019-03-31T09:04:18.577Z,86.40
2019-03-31T09:09:26.371Z,85.20
2019-03-31T09:14:34.188Z,80.30
2019-03-31T09:19:41.992Z,85.00
2019-03-31T09:24:49.655Z,81.10
2019-03-31T09:29:58.370Z,83.50
2019-03-31T09:35:07.910Z,81.10
2019-03-31T09:40:16.602Z,67.50
2019-03-31T09:45:24.301Z,67.80
2019-03-31T09:50:31.965Z,64.90
2019-03-31T09:55:39.679Z,68.50
2019-03-31T10:00:52.677Z,77.30
2019-03-31T10:06:10.669Z,76.30
2019-03-31T10:11:09.847Z,74.40
2019-03-31T10:16:17.623Z,80.40
2019-03-31T10:21:25.286Z,82.00
2019-03-31T10:26:33.021Z,75.00
2019-03-31T10:31:41.079Z,73.70
2019-03-31T10:36:49.996Z,71.40
2019-03-31T10:41:57.868Z,73.70
2019-03-31T10:47:06.688Z,64.10
2019-03-31T10:52:14.507Z,61.40
2019-03-31T10:57:22.448Z,56.70
2019-03-31T11:02:30.191Z,57.70
2019-03-31T11:07:38.115Z,57.50
2019-03-31T11:12:46.216Z,56.90
2019-03-31T11:17:54.081Z,55.80
2019-03-31T11:23:20.728Z,53.60
2019-03-31T11:28:28.511Z,52.30
2019-03-31T11:33:36.523Z,53.20
2019-03-31T11:38:44.466Z,56.40
2019-03-31T11:43:52.383Z,57.60
2019-03-31T11:49:00.303Z,55.10
2019-03-31T11:54:09.260Z,53.00
2019-03-31T11:59:20.691Z,53.20
2019-03-31T12:04:27.363Z,53.60
2019-03-31T12:09:35.123Z,51.20
2019-03-31T12:14:59.599Z,50.80
2019-03-31T12:19:54.407Z,50.80
2019-03-31T12:25:02.134Z,50.50
2019-03-31T12:30:10.089Z,50.00
2019-03-31T12:35:17.816Z,42.00
2019-03-31T12:40:33.428Z,40.70
2019-03-31T12:45:43.157Z,39.40
2019-03-31T12:50:50.688Z,38.40
2019-03-31T12:56:00.345Z,37.80
2019-03-31T13:01:07.815Z,38.00
2019-03-31T13:06:15.495Z,36.30
2019-03-31T13:11:23.262Z,35.60
2019-03-31T13:16:31.014Z,35.70
2019-03-31T13:21:38.720Z,37.50
2019-03-31T13:26:46.373Z,38.20
2019-03-31T13:31:54.659Z,35.40
2019-03-31T13:37:02.366Z,36.40
2019-03-31T13:42:10.147Z,40.40
2019-03-31T13:47:17.809Z,41.30
2019-03-31T13:52:25.574Z,43.00
2019-03-31T13:57:34.120Z,40.30
2019-03-31T14:02:42.304Z,37.30
2019-03-31T14:07:51.082Z,35.60
2019-03-31T14:12:58.739Z,36.50
2019-03-31T14:18:07.654Z,39.60
2019-03-31T14:23:15.775Z,44.00
2019-03-31T14:28:23.708Z,40.50
2019-03-31T14:33:31.773Z,38.20
2019-03-31T14:38:40.700Z,35.00
2019-03-31T14:43:48.601Z,36.00
2019-03-31T14:48:56.799Z,38.20
2019-03-31T14:54:04.591Z,41.60
2019-03-31T14:59:12.554Z,43.60
2019-03-31T15:04:20.370Z,44.70
2019-03-31T15:09:28.396Z,42.90
2019-03-31T15:14:37.446Z,41.70
2019-03-31T15:19:46.203Z,38.30
2019-03-31T15:24:53.960Z,37.50
2019-03-31T15:30:01.814Z,41.10
2019-03-31T15:35:10.931Z,44.20
2019-03-31T15:40:18.627Z,46.70
2019-03-31T15:45:26.387Z,46.90
2019-03-31T15:50:34.478Z,47.10
2019-03-31T15:55:42.199Z,48.50
2019-03-31T16:00:49.986Z,49.80
2019-03-31T16:05:57.776Z,48.80
2019-03-31T16:11:06.261Z,48.40
2019-03-31T16:16:14.310Z,44.70
2019-03-31T16:21:21.610Z,43.90
2019-03-31T16:26:28.771Z,43.00
2019-03-31T16:31:35.898Z,42.40
2019-03-31T16:36:44.256Z,44.40
2019-03-31T16:41:51.475Z,46.90
2019-03-31T16:46:58.684Z,48.20
2019-03-31T16:52:06.231Z,47.90
2019-03-31T16:57:13.450Z,47.60
2019-03-31T17:02:21.310Z,48.30
2019-03-31T17:07:30.492Z,48.50
2019-03-31T17:12:38.616Z,51.60
2019-03-31T17:17:46.382Z,54.30
2019-03-31T17:22:53.536Z,56.30
2019-03-31T17:28:01.045Z,59.20
2019-03-31T17:33:08.468Z,65.70
2019-03-31T17:38:15.656Z,76.10
2019-03-31T17:43:22.767Z,90.30
2019-03-31T17:48:29.943Z,92.60
2019-03-31T17:53:37.065Z,93.00
2019-03-31T17:58:44.238Z,94.00
2019-03-31T18:03:51.385Z,94.90
2019-03-31T18:08:58.431Z,96.10
2019-03-31T18:14:06.913Z,97.10
2019-03-31T18:19:14.427Z,98.20
2019-03-31T18:24:21.510Z,99.30
2019-03-31T18:29:28.667Z,99.20
2019-03-31T18:34:35.769Z,99.70
2019-03-31T18:39:42.956Z,99.90
2019-03-31T18:44:50.230Z,99.90
2019-03-31T18:49:57.476Z,99.90
2019-03-31T18:55:23.374Z,99.90
2019-03-31T19:00:49.368Z,99.90
2019-03-31T19:06:15.519Z,99.90
2019-03-31T19:11:31.432Z,99.90
2019-03-31T19:17:13.371Z,99.90
2019-03-31T19:22:38.990Z,99.90
2019-03-31T19:28:11.076Z,99.90
2019-03-31T19:33:40.063Z,99.90
2019-03-31T19:39:01.760Z,99.90
2019-03-31T19:44:38.843Z,99.90
2019-03-31T19:50:08.652Z,99.90
2019-03-31T19:55:26.585Z,99.90
2019-03-31T20:00:55.878Z,99.90
2019-03-31T20:06:31.219Z,99.90
2019-03-31T20:11:55.722Z,99.90
2019-03-31T20:17:37.219Z,99.90
2019-03-31T20:23:06.611Z,99.90
2019-03-31T20:28:38.230Z,99.90
2019-03-31T20:34:07.384Z,99.90
2019-03-31T20:39:55.770Z,99.90
2019-03-31T20:44:51.177Z,99.90
2019-03-31T20:49:58.227Z,99.90
2019-03-31T20:55:16.087Z,99.90
2019-03-31T21:00:15.980Z,99.90
2019-03-31T21:05:23.318Z,99.90
2019-03-31T21:10:31.879Z,99.90
2019-03-31T21:15:38.972Z,99.90
2019-03-31T21:20:46.214Z,99.90
2019-03-31T21:25:53.415Z,99.90
2019-03-31T21:31:00.537Z,99.90
2019-03-31T21:36:07.740Z,99.90
2019-03-31T21:41:14.941Z,99.90
2019-03-31T21:46:22.137Z,99.90
2019-03-31T21:51:29.665Z,99.90
2019-03-31T21:56:37.629Z,99.90
2019-03-31T22:01:44.830Z,99.90
2019-03-31T22:06:51.909Z,99.90
2019-03-31T22:12:00.815Z,99.90
2019-03-31T22:17:07.915Z,99.90
2019-03-31T22:22:15.115Z,99.90
2019-03-31T22:27:23.241Z,99.90
2019-03-31T22:32:30.369Z,99.90
2019-03-31T22:37:37.594Z,99.90
2019-03-31T22:42:44.704Z,99.90
2019-03-31T22:47:51.802Z,99.90
2019-03-31T22:52:59.877Z,99.90
2019-03-31T22:58:06.915Z,99.90
2019-03-31T23:03:14.015Z,99.90
2019-03-31T23:08:22.801Z,99.90
2019-03-31T23:13:29.894Z,99.90
2019-03-31T23:18:37.272Z,99.90
2019-03-31T23:23:44.400Z,99.90
2019-03-31T23:28:51.534Z,99.90
2019-03-31T23:33:59.571Z,99.90
2019-03-31T23:39:08.207Z,99.90
2019-03-31T23:44:15.630Z,99.90
2019-03-31T23:49:22.714Z,99.90
2019-03-31T23:54:29.777Z,99.90
2019-03-31T23:59:36.928Z,99.90
